createdAt,value
2022-12-26T00:02:02.607Z,12.55
2022-12-26T00:04:52.462Z,12.43
2022-12-26T00:07:18.466Z,12.48
2022-12-26T00:09:45.939Z,12.32
2022-12-26T00:12:13.260Z,12.29
2022-12-26T00:14:40.464Z,12.49
2022-12-26T00:17:07.920Z,12.69
2022-12-26T00:19:35.344Z,12.74
2022-12-26T00:22:02.615Z,12.60
2022-12-26T00:24:29.874Z,12.63
2022-12-26T00:26:57.785Z,12.66
2022-12-26T00:29:25.135Z,12.50
2022-12-26T00:31:52.683Z,12.32
2022-12-26T00:34:20.034Z,12.35
2022-12-26T00:36:49.658Z,12.04
2022-12-26T00:39:17.728Z,11.90
2022-12-26T00:41:45.231Z,11.83
2022-12-26T00:44:12.678Z,12.12
2022-12-26T00:46:40.429Z,12.28
2022-12-26T00:50:15.361Z,12.30
2022-12-26T00:52:25.996Z,12.21
2022-12-26T00:54:53.436Z,12.18
2022-12-26T00:57:21.014Z,12.11
2022-12-26T00:59:48.485Z,12.12
2022-12-26T01:02:34.651Z,11.97
2022-12-26T01:05:02.023Z,12.00
2022-12-26T01:08:22.649Z,11.95
2022-12-26T01:10:25.395Z,11.42
2022-12-26T01:12:53.113Z,11.13
2022-12-26T01:15:20.910Z,11.09
2022-12-26T01:17:48.354Z,11.10
2022-12-26T01:20:15.666Z,11.31
2022-12-26T01:22:43.120Z,11.39
2022-12-26T01:25:12.508Z,11.42
2022-12-26T01:27:39.861Z,11.33
2022-12-26T01:30:08.552Z,11.03
2022-12-26T01:32:35.809Z,11.11
2022-12-26T01:35:03.503Z,10.80
2022-12-26T01:37:31.170Z,10.69
2022-12-26T01:39:58.542Z,11.29
2022-12-26T01:42:27.054Z,11.34
2022-12-26T01:45:06.580Z,11.21
2022-12-26T01:47:58.969Z,11.47
2022-12-26T01:50:46.413Z,11.83
2022-12-26T01:53:28.442Z,11.95
2022-12-26T01:56:12.902Z,11.55
2022-12-26T01:58:51.178Z,11.38
2022-12-26T02:01:21.018Z,11.19
2022-12-26T02:04:07.432Z,11.18
2022-12-26T02:06:36.050Z,11.30
2022-12-26T02:09:04.112Z,11.47
2022-12-26T02:11:50.077Z,11.57
2022-12-26T02:14:39.196Z,12.00
2022-12-26T02:17:07.739Z,12.52
2022-12-26T02:20:20.302Z,12.02
2022-12-26T02:23:19.383Z,11.67
2022-12-26T02:26:17.254Z,11.30
2022-12-26T02:29:28.627Z,10.73
2022-12-26T02:32:32.763Z,10.89
2022-12-26T02:35:43.432Z,11.81
2022-12-26T02:38:41.388Z,11.75
2022-12-26T02:41:31.944Z,11.70
2022-12-26T02:44:40.978Z,11.93
2022-12-26T02:47:42.201Z,11.59
2022-12-26T02:50:54.953Z,11.15
2022-12-26T02:54:11.776Z,11.47
2022-12-26T03:00:39.700Z,11.82
2022-12-26T03:03:37.871Z,11.88
2022-12-26T03:06:50.231Z,11.99
2022-12-26T03:09:44.545Z,12.13
2022-12-26T03:12:39.348Z,12.20
2022-12-26T03:15:19.408Z,11.63
2022-12-26T03:18:06.415Z,11.37
2022-12-26T03:20:38.461Z,11.58
2022-12-26T03:23:13.007Z,12.04
2022-12-26T03:26:20.267Z,12.22
2022-12-26T03:28:48.817Z,12.07
2022-12-26T03:31:17.207Z,11.95
2022-12-26T03:34:05.755Z,12.04
2022-12-26T03:37:47.471Z,12.19
2022-12-26T03:41:06.488Z,11.64
2022-12-26T03:44:53.307Z,11.80
2022-12-26T03:48:03.521Z,12.05
2022-12-26T03:51:14.680Z,12.14
2022-12-26T03:54:23.807Z,12.47
2022-12-26T03:57:28.107Z,12.20
2022-12-26T04:00:30.093Z,12.07
2022-12-26T04:03:29.124Z,12.14
2022-12-26T04:06:22.833Z,12.23
2022-12-26T04:09:36.034Z,12.58
2022-12-26T04:12:24.401Z,12.30
2022-12-26T04:15:20.444Z,11.64
2022-12-26T04:18:24.837Z,11.64
2022-12-26T04:21:46.300Z,11.49
2022-12-26T04:24:48.867Z,11.69
2022-12-26T04:27:38.794Z,12.18
2022-12-26T04:30:26.576Z,11.82
2022-12-26T04:33:24.682Z,11.50
2022-12-26T04:36:22.000Z,11.50
2022-12-26T04:39:21.702Z,11.65
2022-12-26T04:42:11.049Z,11.72
2022-12-26T04:44:39.872Z,11.82
2022-12-26T04:47:07.842Z,11.85
2022-12-26T04:50:02.975Z,12.28
2022-12-26T04:52:50.091Z,12.46
2022-12-26T04:55:18.370Z,12.62
2022-12-26T04:57:45.745Z,12.60
2022-12-26T05:00:25.533Z,12.67
2022-12-26T05:03:16.380Z,12.65
2022-12-26T05:06:09.057Z,12.68
2022-12-26T05:08:59.609Z,12.61
2022-12-26T05:11:28.970Z,12.23
2022-12-26T05:13:58.446Z,12.41
2022-12-26T05:16:47.100Z,12.64
2022-12-26T05:19:36.577Z,12.51
2022-12-26T05:22:23.955Z,12.62
2022-12-26T05:25:12.442Z,12.66
2022-12-26T05:28:03.453Z,12.57
2022-12-26T05:30:30.901Z,12.45
2022-12-26T05:33:17.070Z,12.29
2022-12-26T05:35:44.371Z,12.35
2022-12-26T05:38:11.839Z,12.33
2022-12-26T05:40:39.076Z,12.52
2022-12-26T05:43:06.637Z,13.01
2022-12-26T05:45:33.943Z,13.26
2022-12-26T05:48:03.307Z,12.92
2022-12-26T05:50:30.862Z,12.81
2022-12-26T05:52:59.997Z,12.89
2022-12-26T05:55:27.283Z,13.05
2022-12-26T05:57:54.875Z,13.00
2022-12-26T06:00:23.029Z,13.05
2022-12-26T06:02:50.407Z,13.18
2022-12-26T06:05:18.069Z,13.17
2022-12-26T06:07:45.411Z,13.15
2022-12-26T06:10:13.869Z,13.03
2022-12-26T06:12:41.121Z,13.15
2022-12-26T06:15:09.455Z,13.21
2022-12-26T06:17:36.821Z,12.93
2022-12-26T06:20:05.468Z,12.82
2022-12-26T06:22:32.901Z,12.89
2022-12-26T06:25:00.402Z,13.02
2022-12-26T06:27:29.003Z,13.15
2022-12-26T06:29:56.335Z,13.23
2022-12-26T06:32:23.608Z,13.29
2022-12-26T06:34:50.829Z,13.22
2022-12-26T06:37:18.000Z,13.33
2022-12-26T06:39:45.253Z,13.43
2022-12-26T06:42:12.445Z,12.86
2022-12-26T06:44:39.666Z,13.03
2022-12-26T06:47:07.298Z,13.18
2022-12-26T06:49:34.684Z,13.28
2022-12-26T06:52:02.031Z,13.47
2022-12-26T06:54:29.340Z,13.56
2022-12-26T06:56:56.643Z,13.38
2022-12-26T06:59:23.944Z,13.24
2022-12-26T07:01:51.642Z,13.07
2022-12-26T07:04:19.422Z,12.92
2022-12-26T07:06:46.683Z,12.99
2022-12-26T07:09:18.449Z,12.80
2022-12-26T07:11:50.656Z,13.05
2022-12-26T07:14:18.213Z,13.16
2022-12-26T07:16:46.220Z,13.28
2022-12-26T07:19:15.968Z,13.11
2022-12-26T07:21:44.116Z,12.64
2022-12-26T07:24:19.549Z,12.66
2022-12-26T07:26:48.002Z,13.03
2022-12-26T07:29:16.448Z,13.00
2022-12-26T07:31:44.040Z,13.07
2022-12-26T07:34:11.429Z,12.73
2022-12-26T07:36:39.608Z,12.09
2022-12-26T07:39:07.645Z,12.47
2022-12-26T07:41:54.445Z,12.73
2022-12-26T07:44:22.164Z,12.85
2022-12-26T07:46:50.163Z,13.21
2022-12-26T07:49:17.817Z,13.01
2022-12-26T07:51:45.409Z,13.24
2022-12-26T07:54:13.412Z,12.99
2022-12-26T07:56:41.946Z,13.11
2022-12-26T07:59:18.481Z,13.16
2022-12-26T08:01:46.320Z,13.27
2022-12-26T08:04:14.789Z,13.43
2022-12-26T08:06:42.045Z,13.55
2022-12-26T08:09:17.910Z,13.49
2022-12-26T08:11:45.413Z,13.39
2022-12-26T08:14:14.143Z,13.55
2022-12-26T08:16:41.717Z,13.63
2022-12-26T08:19:10.573Z,13.60
2022-12-26T08:21:38.766Z,13.90
2022-12-26T08:24:06.816Z,13.81
2022-12-26T08:26:34.454Z,13.34
2022-12-26T08:29:01.760Z,13.10
2022-12-26T08:31:29.592Z,12.95
2022-12-26T08:33:57.594Z,12.95
2022-12-26T08:36:25.147Z,12.92
2022-12-26T08:38:53.110Z,12.98
2022-12-26T08:41:21.011Z,13.04
2022-12-26T08:46:39.253Z,12.75
2022-12-26T08:49:06.545Z,12.79
2022-12-26T08:51:33.896Z,12.90
2022-12-26T08:54:01.319Z,12.83
2022-12-26T08:56:29.137Z,12.71
2022-12-26T08:58:56.948Z,12.33
2022-12-26T09:01:29.136Z,12.57
2022-12-26T09:04:00.734Z,12.64
2022-12-26T09:06:32.313Z,12.68
2022-12-26T09:09:02.222Z,12.77
2022-12-26T09:11:31.675Z,12.78
2022-12-26T09:14:02.157Z,12.86
2022-12-26T09:16:49.280Z,12.60
2022-12-26T09:19:18.537Z,12.79
2022-12-26T09:21:47.870Z,13.00
2022-12-26T09:24:18.440Z,12.88
2022-12-26T09:26:46.571Z,13.09
2022-12-26T09:29:14.620Z,13.18
2022-12-26T09:31:42.601Z,13.14
2022-12-26T09:34:10.256Z,13.20
2022-12-26T09:36:39.508Z,13.34
2022-12-26T09:39:07.904Z,13.20
2022-12-26T09:41:50.815Z,13.88
2022-12-26T09:44:53.683Z,13.75
2022-12-26T09:47:46.191Z,13.27
2022-12-26T09:50:29.933Z,13.25
2022-12-26T09:53:08.366Z,13.16
2022-12-26T09:56:13.952Z,13.43
2022-12-26T09:59:02.807Z,13.57
2022-12-26T10:01:41.073Z,13.67
2022-12-26T10:04:35.516Z,13.64
2022-12-26T10:07:42.020Z,13.75
2022-12-26T10:10:15.426Z,13.58
2022-12-26T10:13:09.424Z,13.52
2022-12-26T10:16:16.932Z,13.52
2022-12-26T10:19:44.779Z,13.39
2022-12-26T10:22:49.576Z,13.41
2022-12-26T10:25:30.355Z,13.44
2022-12-26T10:28:03.905Z,13.75
2022-12-26T10:30:42.123Z,13.62
2022-12-26T10:33:43.697Z,13.45
2022-12-26T10:36:34.098Z,13.62
2022-12-26T10:39:08.613Z,13.72
2022-12-26T10:41:48.043Z,13.90
2022-12-26T10:44:16.550Z,13.93
2022-12-26T10:47:22.717Z,13.88
2022-12-26T10:49:50.074Z,13.96
2022-12-26T10:52:23.495Z,14.06
2022-12-26T10:55:28.356Z,14.26
2022-12-26T10:57:51.786Z,14.31
2022-12-26T11:00:27.363Z,14.46
2022-12-26T11:03:20.576Z,14.18
2022-12-26T11:06:07.557Z,14.21
2022-12-26T11:08:47.638Z,13.98
2022-12-26T11:11:45.554Z,13.73
2022-12-26T11:14:44.492Z,13.90
2022-12-26T11:17:28.759Z,14.00
2022-12-26T11:20:17.229Z,14.38
2022-12-26T11:22:51.932Z,14.88
2022-12-26T11:25:27.749Z,14.82
2022-12-26T11:28:01.166Z,13.89
2022-12-26T11:30:34.059Z,14.15
2022-12-26T11:33:14.166Z,14.65
2022-12-26T11:36:10.788Z,14.24
2022-12-26T11:39:00.403Z,14.19
2022-12-26T11:41:40.226Z,14.24
2022-12-26T11:44:27.160Z,14.22
2022-12-26T11:47:12.985Z,14.38
2022-12-26T11:50:17.679Z,14.42
2022-12-26T11:52:57.632Z,14.19
2022-12-26T11:55:37.091Z,14.00
2022-12-26T11:58:20.455Z,14.36
2022-12-26T12:00:50.861Z,14.51
2022-12-26T12:03:48.935Z,14.60
2022-12-26T12:06:37.307Z,14.17
2022-12-26T12:09:53.029Z,14.12
2022-12-26T12:12:54.564Z,14.38
2022-12-26T12:15:42.877Z,14.60
2022-12-26T12:18:34.853Z,14.49
2022-12-26T12:21:15.549Z,14.84
2022-12-26T12:24:29.723Z,15.04
2022-12-26T12:27:17.768Z,15.39
2022-12-26T12:30:29.700Z,15.66
2022-12-26T12:33:28.114Z,15.53
2022-12-26T12:36:12.289Z,15.81
2022-12-26T12:39:13.197Z,15.59
2022-12-26T12:42:23.955Z,15.38
2022-12-26T12:45:46.507Z,15.42
2022-12-26T12:49:18.734Z,15.65
2022-12-26T12:52:33.190Z,15.62
2022-12-26T12:55:33.214Z,15.53
2022-12-26T12:58:32.954Z,15.19
2022-12-26T13:01:24.534Z,15.42
2022-12-26T13:04:18.834Z,15.25
2022-12-26T13:07:11.402Z,15.16
2022-12-26T13:09:49.144Z,15.15
2022-12-26T13:12:43.748Z,15.17
2022-12-26T13:15:42.474Z,15.31
2022-12-26T13:18:23.942Z,15.31
2022-12-26T13:21:05.380Z,15.13
2022-12-26T13:24:24.117Z,15.40
2022-12-26T13:27:22.782Z,15.31
2022-12-26T13:29:50.693Z,15.43
2022-12-26T13:32:25.530Z,15.79
2022-12-26T13:34:57.854Z,15.62
2022-12-26T13:37:38.861Z,15.36
2022-12-26T13:40:20.153Z,15.52
2022-12-26T13:43:42.343Z,15.31
2022-12-26T13:46:46.594Z,15.12
2022-12-26T13:49:39.749Z,15.28
2022-12-26T13:52:15.989Z,15.48
2022-12-26T13:54:51.953Z,15.46
2022-12-26T13:57:44.530Z,15.18
2022-12-26T14:00:25.344Z,15.18
2022-12-26T14:03:51.576Z,15.31
2022-12-26T14:07:15.269Z,15.28
2022-12-26T14:10:30.682Z,15.57
2022-12-26T14:13:49.712Z,15.69
2022-12-26T14:16:36.873Z,15.34
2022-12-26T14:19:39.819Z,15.22
2022-12-26T14:22:44.194Z,15.35
2022-12-26T14:25:57.683Z,15.13
2022-12-26T14:29:23.214Z,15.07
2022-12-26T14:32:15.910Z,15.40
2022-12-26T14:34:55.226Z,15.40
2022-12-26T14:38:11.237Z,15.22
2022-12-26T14:40:58.067Z,15.46
2022-12-26T14:43:41.320Z,14.41
2022-12-26T14:46:31.674Z,15.04
2022-12-26T14:49:37.074Z,15.21
2022-12-26T14:52:26.196Z,14.96
2022-12-26T14:54:55.583Z,14.87
2022-12-26T14:57:48.456Z,15.11
2022-12-26T15:00:25.567Z,15.33
2022-12-26T15:02:59.445Z,15.14
2022-12-26T15:05:38.585Z,14.72
2022-12-26T15:09:02.570Z,14.79
2022-12-26T15:12:23.474Z,15.12
2022-12-26T15:15:38.610Z,14.89
2022-12-26T15:19:09.700Z,14.89
2022-12-26T15:22:33.730Z,14.78
2022-12-26T15:25:44.383Z,14.70
2022-12-26T15:28:36.443Z,14.59
2022-12-26T15:31:47.055Z,14.62
2022-12-26T15:34:47.783Z,14.67
2022-12-26T15:37:36.109Z,14.62
2022-12-26T15:40:15.026Z,14.68
2022-12-26T15:43:16.758Z,14.58
2022-12-26T15:46:22.652Z,14.77
2022-12-26T15:49:20.287Z,14.36
2022-12-26T15:51:57.782Z,14.44
2022-12-26T15:54:54.152Z,14.57
2022-12-26T15:57:59.522Z,14.44
2022-12-26T16:00:48.627Z,14.53
2022-12-26T16:03:39.333Z,14.71
2022-12-26T16:06:43.231Z,14.61
2022-12-26T16:09:52.907Z,14.54
2022-12-26T16:12:26.192Z,14.61
2022-12-26T16:15:15.529Z,14.73
2022-12-26T16:17:53.503Z,14.15
2022-12-26T16:20:47.540Z,14.24
2022-12-26T16:23:21.339Z,14.29
2022-12-26T16:25:55.111Z,14.22
2022-12-26T16:28:35.609Z,14.01
2022-12-26T16:31:05.935Z,13.94
2022-12-26T16:33:42.079Z,13.86
2022-12-26T16:36:19.544Z,13.72
2022-12-26T16:38:50.233Z,13.66
2022-12-26T16:41:28.916Z,13.77
2022-12-26T16:44:30.435Z,13.53
2022-12-26T16:47:09.965Z,13.52
2022-12-26T16:49:41.577Z,13.55
2022-12-26T16:52:45.975Z,13.95
2022-12-26T16:55:28.676Z,13.88
2022-12-26T16:58:17.001Z,14.03
2022-12-26T17:01:14.278Z,14.22
2022-12-26T17:03:59.942Z,13.97
2022-12-26T17:06:37.334Z,13.88
2022-12-26T17:09:16.834Z,13.89
2022-12-26T17:11:58.160Z,14.13
2022-12-26T17:14:34.562Z,13.94
2022-12-26T17:17:24.888Z,14.02
2022-12-26T17:19:57.838Z,14.05
2022-12-26T17:22:37.414Z,13.87
2022-12-26T17:25:33.511Z,13.77
2022-12-26T17:28:14.971Z,13.85
2022-12-26T17:30:48.770Z,13.97
2022-12-26T17:33:36.587Z,14.15
2022-12-26T17:39:24.174Z,14.01
2022-12-26T17:42:01.509Z,14.13
2022-12-26T17:44:44.831Z,14.07
2022-12-26T17:47:29.061Z,13.90
2022-12-26T17:49:57.754Z,13.96
2022-12-26T17:52:30.001Z,14.00
2022-12-26T17:54:59.058Z,13.99
2022-12-26T17:57:30.284Z,14.06
2022-12-26T17:59:58.221Z,14.03
2022-12-26T18:02:25.880Z,13.94
2022-12-26T18:04:55.983Z,13.94
2022-12-26T18:07:30.913Z,13.80
2022-12-26T18:10:01.552Z,13.68
2022-12-26T18:12:29.110Z,13.58
2022-12-26T18:15:01.686Z,13.26
2022-12-26T18:17:33.415Z,13.50
2022-12-26T18:20:02.836Z,12.90
2022-12-26T18:22:30.934Z,12.91
2022-12-26T18:24:58.393Z,13.10
2022-12-26T18:27:32.927Z,12.96
2022-12-26T18:30:01.969Z,12.99
2022-12-26T18:32:34.192Z,12.81
2022-12-26T18:35:01.645Z,12.47
2022-12-26T18:37:35.170Z,12.40
2022-12-26T18:40:02.634Z,12.56
2022-12-26T18:42:30.283Z,12.60
2022-12-26T18:44:57.679Z,12.73
2022-12-26T18:47:25.142Z,12.63
2022-12-26T18:49:52.610Z,12.71
2022-12-26T18:52:19.847Z,12.54
2022-12-26T18:54:47.211Z,12.36
2022-12-26T18:57:22.635Z,12.44
2022-12-26T18:59:50.127Z,12.24
2022-12-26T19:02:24.216Z,12.08
2022-12-26T19:04:51.391Z,11.99
2022-12-26T19:07:20.402Z,11.72
2022-12-26T19:09:55.553Z,12.12
2022-12-26T19:12:24.545Z,11.94
2022-12-26T19:14:53.954Z,11.86
2022-12-26T19:17:21.383Z,12.16
2022-12-26T19:19:48.857Z,11.99
2022-12-26T19:22:16.086Z,12.12
2022-12-26T19:24:46.443Z,12.08
2022-12-26T19:27:13.779Z,12.33
2022-12-26T19:29:42.032Z,12.32
2022-12-26T19:32:11.867Z,12.30
2022-12-26T19:34:39.189Z,12.41
2022-12-26T19:37:06.948Z,12.13
2022-12-26T19:39:34.760Z,12.40
2022-12-26T19:42:02.116Z,12.32
2022-12-26T19:44:30.290Z,12.39
2022-12-26T19:47:12.531Z,12.68
2022-12-26T19:49:44.412Z,12.91
2022-12-26T19:52:13.038Z,12.78
2022-12-26T19:54:40.449Z,13.39
2022-12-26T19:57:08.834Z,12.37
2022-12-26T19:59:36.642Z,12.11
2022-12-26T20:02:04.815Z,12.15
2022-12-26T20:04:32.399Z,12.26
2022-12-26T20:07:00.705Z,12.36
2022-12-26T20:09:28.931Z,12.40
2022-12-26T20:11:57.087Z,12.43
2022-12-26T20:14:27.220Z,12.46
2022-12-26T20:17:05.570Z,12.61
2022-12-26T20:19:35.297Z,12.46
2022-12-26T20:22:03.296Z,12.25
2022-12-26T20:24:30.616Z,12.29
2022-12-26T20:26:58.184Z,12.25
2022-12-26T20:29:25.878Z,12.24
2022-12-26T20:31:55.408Z,12.46
2022-12-26T20:34:22.897Z,12.63
2022-12-26T20:36:50.374Z,12.64
2022-12-26T20:39:21.022Z,12.89
2022-12-26T20:41:48.822Z,12.70
2022-12-26T20:44:18.166Z,12.55
2022-12-26T20:46:47.711Z,12.38
2022-12-26T20:49:17.982Z,12.54
2022-12-26T20:51:46.074Z,12.20
2022-12-26T20:54:17.536Z,11.86
2022-12-26T20:56:45.509Z,12.20
2022-12-26T20:59:13.249Z,12.33
2022-12-26T21:01:45.103Z,12.57
2022-12-26T21:04:22.825Z,12.28
2022-12-26T21:06:50.435Z,12.35
2022-12-26T21:09:17.878Z,12.34
2022-12-26T21:11:45.633Z,12.55
2022-12-26T21:14:19.744Z,12.48
2022-12-26T21:16:56.435Z,12.39
2022-12-26T21:19:27.500Z,12.47
2022-12-26T21:21:56.590Z,12.27
2022-12-26T21:24:31.039Z,11.63
2022-12-26T21:26:58.588Z,11.67
2022-12-26T21:29:31.695Z,11.20
2022-12-26T21:32:01.224Z,11.31
2022-12-26T21:34:32.382Z,11.33
2022-12-26T21:37:19.639Z,11.76
2022-12-26T21:39:47.518Z,11.81
2022-12-26T21:42:15.321Z,11.83
2022-12-26T21:44:42.558Z,12.29
2022-12-26T21:47:09.900Z,11.93
2022-12-26T21:49:37.979Z,12.41
2022-12-26T21:52:07.101Z,12.19
2022-12-26T21:54:53.830Z,11.89
2022-12-26T21:57:22.163Z,11.85
2022-12-26T21:59:59.522Z,11.75
2022-12-26T22:02:56.857Z,11.52
2022-12-26T22:05:28.342Z,11.39
2022-12-26T22:08:00.672Z,11.23
2022-12-26T22:10:51.478Z,11.49
2022-12-26T22:13:22.329Z,11.20
2022-12-26T22:16:04.504Z,11.12
2022-12-26T22:18:47.065Z,11.44
2022-12-26T22:21:19.641Z,11.06
2022-12-26T22:23:50.597Z,11.21
2022-12-26T22:26:22.862Z,11.10
2022-12-26T22:28:50.340Z,10.90
2022-12-26T22:31:27.144Z,10.75
2022-12-26T22:33:59.942Z,10.73
2022-12-26T22:36:30.190Z,10.86
2022-12-26T22:38:59.488Z,10.81
2022-12-26T22:41:28.781Z,10.62
2022-12-26T22:43:56.542Z,10.74
2022-12-26T22:46:24.212Z,10.56
2022-12-26T22:48:52.344Z,10.71
2022-12-26T22:51:27.220Z,10.70
2022-12-26T22:53:57.918Z,10.37
2022-12-26T22:56:26.614Z,10.54
2022-12-26T22:58:56.826Z,10.65
2022-12-26T23:01:24.908Z,10.78
2022-12-26T23:03:53.111Z,10.80
2022-12-26T23:06:28.296Z,10.73
2022-12-26T23:09:00.831Z,10.69
2022-12-26T23:11:34.972Z,10.64
2022-12-26T23:14:09.331Z,10.46
2022-12-26T23:16:54.929Z,10.27
2022-12-26T23:20:07.899Z,10.18
2022-12-26T23:22:35.785Z,10.15
2022-12-26T23:25:03.333Z,9.95
2022-12-26T23:27:49.299Z,10.17
2022-12-26T23:30:19.663Z,9.95
2022-12-26T23:32:52.534Z,9.86
2022-12-26T23:35:22.699Z,9.99
2022-12-26T23:37:53.623Z,9.91
2022-12-26T23:40:22.797Z,9.86
2022-12-26T23:42:50.192Z,9.96
2022-12-26T23:45:17.691Z,10.18
2022-12-26T23:47:46.283Z,10.25
2022-12-26T23:50:20.153Z,10.08
2022-12-26T23:52:47.611Z,10.34
2022-12-26T23:55:14.893Z,10.52
2022-12-26T23:57:42.501Z,10.80
